Latest Weather Observations for Dennes Point

IDT60901

Issued at 2:51 pm EDT Wednesday 22 February 2017 (issued every 10 minutes, with the page automatically refreshed every 10 minutes)

About weather observations | Map of Hobart area stations | Latest observations for Hobart area | Other Formats
Station Details ID: 094255 Name: DENNES POINT Lat: -43.06 Lon: 147.36 Height: 5.67 m
Data from the previous 72 hours. | See also: Recent months at Dennes Point
Date/Time
EDT
Temp
°C
App
Temp
°C
Dew
Point
°C
Rel
Hum
%
Delta-T
°C
Wind Press
QNH
hPa
Press
MSL
hPa
Rain since
9am
mm
Dir  Spd
km/h
Gust
km/h
Spd
kts
Gust
kts
22/02:30pm 24.3 22.2 9.8 40 7.9 ENE 11 20 6 11 1012.0 1011.9 0.0
22/02:00pm 23.2 20.6 11.9 49 6.4 NNE 17 19 9 10 1012.4 1012.3 0.0
22/01:30pm 22.1 20.0 11.2 50 6.0 NNE 13 17 7 9 1012.8 1012.7 0.0
22/01:00pm 21.5 18.4 11.5 53 5.6 NNE 19 22 10 12 1013.3 1013.2 0.0
22/12:30pm 20.4 16.6 11.3 56 5.0 NNE 22 26 12 14 1013.6 1013.5 0.0
22/12:00pm 19.3 14.6 10.8 58 4.6 N 26 32 14 17 1014.1 1014.0 0.0
22/11:30am 18.5 13.9 11.1 62 4.0 NNE 26 33 14 18 1014.4 1014.3 0.0
22/11:00am 17.1 12.1 10.9 67 3.3 NNE 28 33 15 18 1014.8 1014.7 0.0
22/10:30am 16.5 11.5 10.8 69 3.0 N 28 35 15 19 1015.4 1015.3 0.0
22/10:00am 15.4 11.2 11.0 75 2.3 N 24 32 13 17 1015.7 1015.6 0.0
22/09:30am 14.6 10.0 11.0 79 1.9 N 26 32 14 17 1015.7 1015.6 0.0
22/09:00am 13.9 9.6 10.9 82 1.6 NNE 24 28 13 15 1015.9 1015.8 0.0
22/08:30am 13.8 10.0 11.1 84 1.4 NNE 22 28 12 15 1016.2 1016.1 0.0
22/08:00am 13.3 9.5 11.0 86 1.2 NNE 22 26 12 14 1016.0 1015.9 0.0
22/07:30am 13.6 9.5 11.3 86 1.2 NNE 24 28 13 15 1015.9 1015.8 0.0
22/07:00am 13.2 9.4 11.1 87 1.1 NNE 22 24 12 13 1016.2 1016.1 0.0
22/06:30am 13.1 9.7 11.3 89 1.0 NNE 20 24 11 13 1016.1 1016.0 0.0
22/06:00am 13.3 10.5 11.4 88 1.0 NNE 17 22 9 12 1016.1 1016.0 0.0
22/05:30am 13.4 11.0 11.5 88 1.0 NNE 15 17 8 9 1016.1 1016.0 0.0
22/05:00am 13.5 11.2 11.6 88 1.0 NNE 15 17 8 9 1016.5 1016.4 0.0
22/04:30am 13.4 11.7 11.3 87 1.1 NNE 11 15 6 8 1016.8 1016.7 0.0
22/04:00am 12.1 11.5 10.3 89 0.9 S 4 6 2 3 1017.3 1017.2 0.0
22/03:30am 11.5 10.4 9.9 90 0.8 SW 6 7 3 4 1017.7 1017.6 0.0
22/03:00am 12.3 11.4 10.5 89 0.9 SSW 6 7 3 4 1018.0 1017.9 0.0
22/02:30am 12.3 11.7 10.4 88 1.0 SSW 4 6 2 3 1018.2 1018.1 0.0
22/02:00am 12.4 11.1 10.1 86 1.2 SSW 7 9 4 5 1018.3 1018.2 0.0
22/01:30am 13.7 12.1 10.3 80 1.8 NNE 9 11 5 6 1018.7 1018.6 0.0
22/01:00am 13.9 12.7 10.3 79 1.9 NE 7 9 4 5 1019.3 1019.2 0.0
22/12:30am 14.0 12.0 10.2 78 2.0 NE 11 13 6 7 1019.6 1019.5 0.0
22/12:00am 14.0 11.6 10.2 78 2.0 ENE 13 17 7 9 1019.6 1019.5 0.0
 
Date/Time
EDT
Temp
°C
App
Temp
°C
Dew
Point
°C
Rel
Hum
%
Delta-T
°C
Wind Press
QNH
hPa
Press
MSL
hPa
Rain since
9am
mm
Dir  Spd
km/h
Gust
km/h
Spd
kts
Gust
kts
21/11:30pm 14.2 11.2 10.6 79 1.9 E 17 20 9 11 1019.7 1019.6 0.0
21/11:00pm 14.1 10.9 10.1 77 2.1 E 17 22 9 12 1019.9 1019.8 0.0
21/10:30pm 14.1 10.9 9.9 76 2.2 E 17 22 9 12 1020.1 1020.1 0.0
21/10:00pm 14.2 11.2 9.2 72 2.5 E 15 19 8 10 1020.3 1020.3 0.0
21/09:30pm 14.4 11.4 9.4 72 2.6 E 15 19 8 10 1020.1 1020.1 0.0
21/09:00pm 14.2 11.2 9.4 73 2.4 E 15 17 8 9 1019.7 1019.6 0.0
21/08:30pm 14.5 10.9 9.9 74 2.4 E 19 22 10 12 1019.3 1019.2 0.0
21/08:00pm 15.1 12.3 9.9 71 2.7 E 15 20 8 11 1018.9 1018.8 0.0
21/07:30pm 15.7 13.6 9.6 67 3.2 ESE 11 19 6 10 1018.3 1018.2 0.0
21/07:00pm 15.9 12.1 9.8 67 3.2 ESE 20 32 11 17 1017.9 1017.8 0.0
21/06:30pm 16.6 11.9 9.3 62 3.8 ESE 24 30 13 16 1017.6 1017.5 0.0
21/06:00pm 20.2 16.9 6.5 41 6.9 W 13 19 7 10 1017.1 1017.0 0.0
21/05:30pm 20.6 16.8 3.8 33 8.0 WSW 13 17 7 9 1017.0 1016.9 0.0
21/05:00pm 20.7 17.6 5.5 37 7.5 W 11 17 6 9 1016.9 1016.8 0.0
21/04:30pm 21.0 17.1 5.4 36 7.7 WSW 15 20 8 11 1016.8 1016.7 0.0
21/04:00pm 20.5 16.4 6.1 39 7.2 WSW 17 22 9 12 1016.9 1016.8 0.0
21/03:30pm 20.3 15.9 4.8 36 7.5 WSW 17 26 9 14 1016.9 1016.8 0.0
21/03:00pm 20.6 15.2 6.2 39 7.2 WSW 24 35 13 19 1016.8 1016.7 0.0
21/02:30pm 20.1 14.5 5.4 38 7.2 W 24 33 13 18 1017.1 1017.0 0.0
21/02:00pm 20.0 14.9 6.0 40 6.9 W 22 30 12 16 1017.3 1017.2 0.0
21/01:30pm 19.6 14.3 6.7 43 6.5 W 24 30 13 16 1017.3 1017.2 0.0
21/01:00pm 19.4 13.6 6.2 42 6.5 W 26 33 14 18 1017.3 1017.2 0.0
21/12:30pm 18.5 12.8 4.7 40 6.6 WSW 24 30 13 16 1017.5 1017.4 0.0
21/12:00pm 17.0 11.8 5.3 46 5.6 WSW 22 32 12 17 1017.8 1017.7 0.0
21/11:30am 16.7 12.4 5.3 47 5.5 W 17 22 9 12 1017.9 1017.8 0.0
21/11:00am 16.6 11.3 4.9 46 5.5 WSW 22 32 12 17 1017.9 1017.8 0.0
21/10:30am 16.1 10.9 5.7 50 5.0 WSW 22 32 12 17 1017.8 1017.7 0.0
21/10:00am 14.5 10.0 4.2 50 4.7 WSW 17 28 9 15 1017.6 1017.5 0.0
21/09:30am 14.9 9.5 4.6 50 4.8 WSW 22 30 12 16 1017.5 1017.4 0.0
21/09:00am 14.7 9.9 4.7 51 4.6 WSW 19 32 10 17 1017.1 1017.0 2.6
21/08:30am 14.0 9.7 5.1 55 4.2 WSW 17 20 9 11 1017.2 1017.1 2.6
21/08:00am 13.5 9.6 5.4 58 3.8 W 15 19 8 10 1016.8 1016.7 2.6
21/07:30am 12.6 8.4 5.5 62 3.3 W 17 20 9 11 1016.2 1016.1 2.6
21/07:00am 12.6 8.8 5.8 63 3.2 W 15 26 8 14 1015.7 1015.6 2.6
21/06:30am 12.7 8.5 5.8 63 3.2 W 17 24 9 13 1015.2 1015.1 2.6
21/06:00am 12.1 8.2 7.0 71 2.4 WSW 17 22 9 12 1014.9 1014.8 2.6
21/05:30am 12.4 8.3 6.2 66 2.9 W 17 20 9 11 1014.5 1014.4 2.6
21/05:00am 12.4 7.5 7.1 70 2.6 W 22 30 12 16 1014.2 1014.1 2.6
21/04:30am 12.6 6.0 6.2 65 3.0 W 30 41 16 22 1013.7 1013.6 2.6
21/04:00am 12.2 7.3 6.7 69 2.6 W 22 32 12 17 1013.6 1013.5 2.6
21/03:30am 12.2 7.2 6.5 68 2.7 W 22 28 12 15 1013.3 1013.2 2.6
21/03:00am 12.8 8.3 5.9 63 3.2 W 19 28 10 15 1013.4 1013.3 2.6
21/02:30am 12.4 7.7 6.0 65 3.0 W 20 26 11 14 1013.2 1013.1 2.6
21/02:00am 12.7 7.0 6.7 67 2.9 W 26 32 14 17 1013.0 1012.9 2.6
21/01:30am 12.8 6.2 6.2 64 3.1 W 30 39 16 21 1012.9 1012.8 2.6
21/01:00am 12.6 6.7 7.5 71 2.5 WSW 28 35 15 19 1013.1 1013.0 2.6
21/12:30am 12.6 6.8 7.9 73 2.3 WSW 28 35 15 19 1013.0 1012.9 2.6
21/12:00am 12.9 7.9 8.2 73 2.3 WSW 24 32 13 17 1013.0 1012.9 2.6
 
Date/Time
EDT
Temp
°C
App
Temp
°C
Dew
Point
°C
Rel
Hum
%
Delta-T
°C
Wind Press
QNH
hPa
Press
MSL
hPa
Rain since
9am
mm
Dir  Spd
km/h
Gust
km/h
Spd
kts
Gust
kts
20/11:30pm 13.0 7.3 8.5 74 2.2 SW 28 35 15 19 1012.8 1012.7 2.6
20/11:00pm 13.2 8.3 8.3 72 2.4 SW 24 41 13 22 1012.9 1012.8 2.6
20/10:30pm 13.3 9.7 8.2 71 2.5 SW 17 32 9 17 1012.7 1012.6 2.6
20/10:00pm 13.4 8.9 8.5 72 2.4 SW 22 32 12 17 1012.7 1012.6 2.6
20/09:30pm 13.2 8.7 8.7 74 2.3 SW 22 32 12 17 1012.4 1012.3 2.6
20/09:00pm 13.2 9.4 8.9 75 2.2 SW 19 28 10 15 1011.8 1011.7 2.6
20/08:30pm 13.3 9.6 9.5 78 1.9 SSW 19 30 10 16 1011.3 1011.2 2.6
20/08:00pm 13.5 9.8 9.6 77 2.0 SSW 19 30 10 16 1010.8 1010.7 2.6
20/07:30pm 13.7 10.0 9.4 75 2.2 SSW 19 28 10 15 1010.6 1010.5 2.6
20/07:00pm 14.0 11.6 10.0 77 2.1 SSW 13 20 7 11 1010.2 1010.1 2.6
20/06:30pm 13.7 11.6 11.0 84 1.4 SSW 13 17 7 9 1009.8 1009.7 2.6
20/06:00pm 14.2 12.4 11.0 81 1.7 S 11 17 6 9 1009.4 1009.3 2.6
20/05:30pm 13.6 10.7 11.0 84 1.4 SSW 17 24 9 13 1009.1 1009.0 2.6
20/05:00pm 13.8 12.2 11.7 87 1.1 SSW 11 19 6 10 1008.8 1008.7 2.4
20/04:30pm 14.0 11.7 11.7 86 1.2 S 15 28 8 15 1008.5 1008.4 2.4
20/04:00pm 14.3 12.6 12.3 88 1.1 SW 13 22 7 12 1008.3 1008.2 2.0
20/03:30pm 13.9 12.5 12.3 90 0.9 SW 11 15 6 8 1008.3 1008.2 2.0
20/03:00pm 13.0 11.0 11.6 91 0.7 SW 13 19 7 10 1008.4 1008.3 2.0
20/02:30pm 12.7 9.5 11.1 90 0.8 SSW 19 28 10 15 1008.4 1008.3 1.4
20/02:00pm 16.6 12.6 10.5 67 3.2 SW 22 32 12 17 1007.9 1007.8 0.0
20/01:30pm 15.4 10.9 10.0 70 2.8 SW 24 35 13 19 1007.9 1007.8 0.0
20/01:00pm 17.2 13.5 10.1 63 3.8 SW 20 30 11 16 1008.0 1007.9 0.0
20/12:30pm 15.7 11.9 9.8 68 3.1 SW 20 28 11 15 1008.2 1008.1 0.0
20/12:00pm 16.4 12.2 9.6 64 3.6 SW 22 30 12 16 1008.2 1008.1 0.0
20/11:30am 16.4 12.7 9.6 64 3.5 WSW 19 26 10 14 1008.3 1008.2 0.0
20/11:00am 15.7 11.8 9.6 67 3.2 WSW 20 26 11 14 1008.3 1008.2 0.0
20/10:30am 15.4 11.6 9.7 69 3.0 WSW 20 28 11 15 1008.4 1008.3 0.0
20/10:00am 14.5 11.0 8.9 69 2.8 WSW 17 22 9 12 1008.3 1008.2 0.0
20/09:30am 13.6 10.1 8.9 73 2.4 WSW 17 22 9 12 1008.0 1007.9 0.0
20/09:00am 12.9 9.7 8.6 75 2.2 WSW 15 20 8 11 1008.3 1008.2 1.4
20/08:30am 12.8 9.8 9.1 78 1.9 WSW 15 19 8 10 1007.8 1007.7 1.4
20/08:00am 11.8 8.2 8.5 80 1.6 WSW 17 19 9 10 1007.7 1007.6 1.4
20/07:30am 11.0 8.3 8.8 86 1.1 SW 13 17 7 9 1007.7 1007.6 1.4
20/07:00am 10.9 8.1 8.7 86 1.1 SW 13 17 7 9 1007.5 1007.4 1.4
20/06:30am 11.1 8.2 8.3 83 1.4 SW 13 19 7 10 1007.4 1007.3 1.4
20/06:00am 10.3 7.3 7.9 85 1.2 SW 13 17 7 9 1007.1 1007.0 1.4
20/05:30am 9.9 6.9 7.7 86 1.1 SSW 13 15 7 8 1006.8 1006.7 1.4
20/05:00am 10.3 7.3 7.7 84 1.3 SW 13 15 7 8 1006.7 1006.6 1.4
20/04:30am 10.0 7.4 7.6 85 1.1 SSW 11 17 6 9 1006.6 1006.5 1.4
20/04:00am 9.7 7.0 7.5 86 1.1 SSW 11 15 6 8 1006.7 1006.6 1.4
20/03:30am 10.0 8.0 7.3 83 1.3 SSW 7 9 4 5 1006.9 1006.8 1.4
20/03:00am 10.0 8.1 6.7 80 1.6 SSW 6 7 3 4 1006.9 1006.8 1.4
20/02:30am 10.6 9.2 7.3 80 1.6 SSW 4 6 2 3 1006.8 1006.7 1.4
20/02:00am 10.5 7.9 7.9 84 1.3 SW 11 13 6 7 1006.4 1006.3 1.4
20/01:30am 11.7 8.0 7.8 77 1.9 WSW 17 20 9 11 1006.2 1006.1 1.4
20/01:00am 11.6 7.8 7.5 76 2.0 W 17 20 9 11 1006.5 1006.4 1.4
20/12:30am 12.2 9.2 7.9 75 2.1 WSW 13 20 7 11 1006.5 1006.4 1.4
20/12:00am 12.0 8.6 7.5 74 2.2 SW 15 19 8 10 1006.1 1006.0 1.4
 
Date/Time
EDT
Temp
°C
App
Temp
°C
Dew
Point
°C
Rel
Hum
%
Delta-T
°C
Wind Press
QNH
hPa
Press
MSL
hPa
Rain since
9am
mm
Dir  Spd
km/h
Gust
km/h
Spd
kts
Gust
kts
19/11:30pm 12.8 8.6 8.1 73 2.3 WSW 20 28 11 15 1006.5 1006.4 1.4
19/11:00pm 13.0 8.8 8.3 73 2.3 W 20 32 11 17 1006.8 1006.7 1.4
19/10:30pm 12.4 10.2 9.2 81 1.6 SW 11 15 6 8 1006.6 1006.5 1.4
19/10:00pm 12.2 10.8 9.4 83 1.4 SW 7 9 4 5 1006.5 1006.4 1.4
19/09:30pm 12.6 10.7 8.9 78 1.9 SSW 9 11 5 6 1006.2 1006.1 1.4
19/09:00pm 12.6 10.9 7.7 72 2.4 SSW 6 6 3 3 1005.9 1005.8 1.4
19/08:30pm 13.2 11.4 7.9 70 2.6 SSE 7 9 4 5 1005.5 1005.4 1.4
19/08:00pm 13.8 12.0 7.1 64 3.3 SSE 6 7 3 4 1005.0 1004.9 1.4
19/07:30pm 14.6 12.7 6.9 60 3.8 SSE 6 11 3 6 1004.6 1004.5 1.4
19/07:00pm 15.6 12.3 6.3 54 4.5 ESE 13 19 7 10 1004.4 1004.3 1.4
19/06:30pm 15.9 13.9 8.6 62 3.7 SE 9 17 5 9 1004.2 1004.1 1.4
19/06:00pm 16.4 13.6 8.4 59 4.1 ESE 13 17 7 9 1004.0 1003.9 1.4
19/05:30pm 16.2 12.4 7.7 57 4.3 ESE 17 22 9 12 1003.8 1003.7 1.4
19/05:00pm 16.4 12.4 6.5 52 4.9 ESE 17 20 9 11 1003.8 1003.7 1.4
19/04:30pm 16.6 12.9 6.4 51 5.0 ESE 15 20 8 11 1003.6 1003.5 1.4
19/04:00pm 15.5 11.4 6.0 53 4.6 ESE 17 20 9 11 1003.7 1003.6 1.4
19/03:30pm 16.6 13.4 5.3 47 5.4 ESE 11 15 6 8 1003.8 1003.7 1.4
19/03:00pm 16.4 14.5 6.5 52 4.9 E 6 9 3 5 1004.0 1003.9 1.4

Latest Capital City Observations: Canberra | Sydney | Melbourne | Brisbane | Adelaide | Perth | Hobart | Darwin

Other Formats:

Comma delimited format used in spreadsheet applications
http://www.bom.gov.au/fwo/IDT60901/IDT60901.94988.axf

JavaScript Object Notation format (JSON) in row-major order
http://www.bom.gov.au/fwo/IDT60901/IDT60901.94988.json